Time;durP1;ratioP1;P1;durP2;ratioP2;P2;SDS_P1;SDS_P2;PMS_P1;PMS_P2;Temp;Humidity;BMP_temperature;BMP_pressure;BME280_temperature;BME280_humidity;BME280_pressure;Samples;Min_cycle;Max_cycle;Signal;HPM_P1;HPM_P2
2022/07/25 00:01:03;0.00;0.00;0.62;0.00;0.00;0.62;10.40;7.63;;;28.60;30.20;;;;;;2221093;62;20380;-69
2022/07/25 00:03:49;0.00;0.00;0.62;0.00;0.00;0.62;9.10;7.17;;;28.50;30.20;;;;;;2226216;62;20373;-71
2022/07/25 00:06:35;0.00;0.00;0.62;0.00;0.00;0.62;9.10;6.57;;;28.40;30.20;;;;;;2225556;62;20479;-69
2022/07/25 00:09:19;0.00;0.00;0.62;0.00;0.00;0.62;8.60;7.00;;;28.40;30.30;;;;;;2225788;62;20415;-71
2022/07/25 00:12:05;0.00;0.00;0.62;0.00;0.00;0.62;9.27;6.70;;;28.30;30.30;;;;;;2226097;62;20421;-70
2022/07/25 00:14:50;0.00;0.00;0.62;0.00;0.00;0.62;7.63;6.93;;;28.30;30.40;;;;;;2225527;62;20385;-68
2022/07/25 00:17:34;0.00;0.00;0.62;0.00;0.00;0.62;8.23;6.20;;;28.20;30.30;;;;;;2226359;62;20563;-68
2022/07/25 00:20:20;0.00;0.00;0.62;0.00;0.00;0.62;7.73;6.60;;;28.20;30.50;;;;;;2225318;62;20653;-68
2022/07/25 00:23:05;0.00;0.00;0.62;0.00;0.00;0.62;6.83;6.07;;;28.10;30.70;;;;;;2221749;62;20489;-68
2022/07/25 00:25:50;0.00;0.00;0.62;0.00;0.00;0.62;6.90;6.20;;;28.10;30.70;;;;;;2222369;62;20410;-67
2022/07/25 00:28:34;0.00;0.00;0.62;0.00;0.00;0.62;7.87;7.07;;;28.00;30.80;;;;;;2221637;62;20366;-69
2022/07/25 00:31:19;0.00;0.00;0.62;0.00;0.00;0.62;7.47;6.67;;;28.00;31.00;;;;;;2224400;62;20373;-68
2022/07/25 00:34:03;0.00;0.00;0.62;0.00;0.00;0.62;7.53;6.50;;;27.90;31.00;;;;;;2226439;62;20430;-69
2022/07/25 00:36:50;0.00;0.00;0.62;0.00;0.00;0.62;8.70;7.03;;;27.80;31.10;;;;;;2225837;62;20414;-68
2022/07/25 00:39:35;0.00;0.00;0.62;0.00;0.00;0.62;9.50;7.50;;;27.70;31.10;;;;;;2226537;62;20622;-67
2022/07/25 00:42:20;0.00;0.00;0.62;0.00;0.00;0.62;10.50;6.40;;;27.70;31.20;;;;;;2226395;62;20442;-69
2022/07/25 00:45:09;0.00;0.00;0.62;0.00;0.00;0.62;12.77;6.93;;;27.60;31.40;;;;;;2226153;62;20588;-67
2022/07/25 00:47:54;0.00;0.00;0.62;0.00;0.00;0.62;11.27;7.13;;;27.50;31.50;;;;;;2226846;62;20491;-67
2022/07/25 00:50:39;0.00;0.00;0.62;0.00;0.00;0.62;7.63;6.47;;;27.50;31.70;;;;;;2224971;62;20378;-67
2022/07/25 00:53:26;0.00;0.00;0.62;0.00;0.00;0.62;8.60;6.63;;;27.40;31.70;;;;;;2222506;62;20390;-67
2022/07/25 00:56:11;0.00;0.00;0.62;0.00;0.00;0.62;10.53;6.60;;;27.40;31.70;;;;;;2222371;62;20387;-68
2022/07/25 00:58:55;0.00;0.00;0.62;0.00;0.00;0.62;8.90;6.97;;;27.30;31.60;;;;;;2222337;62;20371;-67
2022/07/25 01:01:41;0.00;0.00;0.62;0.00;0.00;0.62;9.03;6.40;;;27.30;31.60;;;;;;2225524;62;20436;-68
2022/07/25 01:04:26;0.00;0.00;0.62;0.00;0.00;0.62;8.97;6.33;;;27.30;31.60;;;;;;2226410;62;20370;-64
2022/07/25 01:07:10;0.00;0.00;0.62;0.00;0.00;0.62;10.33;5.90;;;27.20;31.50;;;;;;2225663;62;20350;-65
2022/07/25 01:09:58;0.00;0.00;0.62;0.00;0.00;0.62;8.13;6.50;;;27.10;31.70;;;;;;2226718;62;20362;-66
2022/07/25 01:12:47;0.00;0.00;0.62;0.00;0.00;0.62;6.73;6.13;;;27.10;31.80;;;;;;2507863;46;20602;-65
2022/07/25 01:15:33;0.00;0.00;0.62;0.00;0.00;0.62;8.70;6.63;;;27.10;31.80;;;;;;2218596;62;20415;-65
2022/07/25 01:18:17;0.00;0.00;0.62;0.00;0.00;0.62;7.20;6.60;;;27.10;31.90;;;;;;2218780;62;20405;-65
2022/07/25 01:21:04;0.00;0.00;0.62;0.00;0.00;0.62;7.57;6.77;;;27.10;32.00;;;;;;2221593;62;20376;-65
2022/07/25 01:23:49;0.00;0.00;0.62;0.00;0.00;0.62;6.93;5.77;;;27.10;32.00;;;;;;2226434;62;20354;-65
2022/07/25 01:26:34;0.00;0.00;0.62;0.00;0.00;0.62;7.37;5.90;;;27.10;31.90;;;;;;2226430;62;20370;-65
2022/07/25 01:29:19;0.00;0.00;0.62;0.00;0.00;0.62;7.20;5.60;;;27.20;32.00;;;;;;2225812;62;20370;-65
2022/07/25 01:32:05;0.00;0.00;0.62;0.00;0.00;0.62;7.00;6.07;;;27.20;32.00;;;;;;2226255;62;20810;-65
2022/07/25 01:34:50;0.00;0.00;0.62;0.00;0.00;0.62;6.30;5.70;;;27.20;31.90;;;;;;2226045;62;20469;-65
2022/07/25 01:37:36;0.00;0.00;0.62;0.00;0.00;0.62;6.13;5.47;;;27.20;31.80;;;;;;2226215;62;20370;-65
2022/07/25 01:40:22;0.00;0.00;0.62;0.00;0.00;0.62;7.50;5.87;;;27.30;31.60;;;;;;2226311;62;20369;-65
2022/07/25 01:43:07;0.00;0.00;0.62;0.00;0.00;0.62;6.70;5.97;;;27.30;31.60;;;;;;2225875;62;20389;-65
2022/07/25 01:45:52;0.00;0.00;0.62;0.00;0.00;0.62;7.37;5.90;;;27.30;31.60;;;;;;2226287;62;20446;-65
2022/07/25 01:48:37;0.00;0.00;0.62;0.00;0.00;0.62;6.13;5.23;;;27.40;31.70;;;;;;2226216;62;20373;-65
2022/07/25 01:51:21;0.00;0.00;0.62;0.00;0.00;0.62;6.77;5.60;;;27.30;31.60;;;;;;2225694;62;20494;-65
2022/07/25 01:54:07;0.00;0.00;0.62;0.00;0.00;0.62;8.30;5.23;;;27.40;31.40;;;;;;2226609;62;20435;-65
2022/07/25 01:56:52;0.00;0.00;0.62;0.00;0.00;0.62;6.70;6.03;;;27.40;31.10;;;;;;2226107;62;20581;-65
2022/07/25 01:59:38;0.00;0.00;0.62;0.00;0.00;0.62;6.70;5.10;;;27.40;30.90;;;;;;2226122;62;20370;-65
2022/07/25 02:02:23;0.00;0.00;0.62;0.00;0.00;0.62;7.60;5.43;;;27.40;30.80;;;;;;2226432;62;20439;-65
2022/07/25 02:05:11;0.00;0.00;0.62;0.00;0.00;0.62;5.50;4.97;;;27.50;30.70;;;;;;2226224;62;20416;-65
2022/07/25 02:07:56;0.00;0.00;0.62;0.00;0.00;0.62;5.50;5.00;;;27.50;30.60;;;;;;2226161;62;20363;-65
2022/07/25 02:10:42;0.00;0.00;0.62;0.00;0.00;0.62;5.40;4.80;;;27.50;30.50;;;;;;2226301;62;20370;-65
2022/07/25 02:13:27;0.00;0.00;0.62;0.00;0.00;0.62;5.30;4.83;;;27.50;30.30;;;;;;2225808;62;20761;-65
2022/07/25 02:16:12;0.00;0.00;0.62;0.00;0.00;0.62;6.07;5.20;;;27.50;30.20;;;;;;2226620;62;20629;-65
2022/07/25 02:18:57;0.00;0.00;0.62;0.00;0.00;0.62;5.57;5.07;;;27.60;30.10;;;;;;2225971;62;20400;-66
2022/07/25 02:21:42;0.00;0.00;0.62;0.00;0.00;0.62;7.00;5.10;;;27.60;30.00;;;;;;2223060;62;20402;-66
2022/07/25 02:24:27;0.00;0.00;0.62;0.00;0.00;0.62;4.67;4.27;;;27.60;30.00;;;;;;2222645;62;20477;-65
2022/07/25 02:27:13;0.00;0.00;0.62;0.00;0.00;0.62;5.57;5.00;;;27.60;29.90;;;;;;2221996;62;20739;-65
2022/07/25 02:29:58;0.00;0.00;0.62;0.00;0.00;0.62;6.67;5.23;;;27.60;29.80;;;;;;2222155;62;20363;-65
2022/07/25 02:32:43;0.00;0.00;0.62;0.00;0.00;0.62;5.73;5.13;;;27.60;29.60;;;;;;2450010;54;20648;-65
2022/07/25 02:35:27;0.00;0.00;0.62;0.00;0.00;0.62;6.13;4.77;;;27.60;29.50;;;;;;2221816;62;20685;-65
2022/07/25 02:38:18;0.00;0.00;0.62;0.00;0.00;0.62;4.63;4.23;;;27.60;29.50;;;;;;2222665;62;20378;-65
2022/07/25 02:41:03;0.00;0.00;0.62;0.00;0.00;0.62;5.90;5.30;;;27.60;29.40;;;;;;2225945;62;20739;-65
2022/07/25 02:43:50;0.00;0.00;0.62;0.00;0.00;0.62;10.73;5.10;;;27.60;29.40;;;;;;2225915;62;20416;-65
2022/07/25 02:46:35;0.00;0.00;0.62;0.00;0.00;0.62;7.07;4.07;;;27.60;29.30;;;;;;2226468;62;20387;-65
2022/07/25 02:49:20;0.00;0.00;0.62;0.00;0.00;0.62;5.80;4.93;;;27.60;29.20;;;;;;2225798;62;20407;-65
2022/07/25 02:52:04;0.00;0.00;0.62;0.00;0.00;0.62;5.33;4.83;;;27.60;29.20;;;;;;2225911;62;20643;-65
2022/07/25 02:54:50;0.00;0.00;0.62;0.00;0.00;0.62;4.97;4.47;;;27.60;29.10;;;;;;2226375;62;20427;-65
2022/07/25 02:57:34;0.00;0.00;0.62;0.00;0.00;0.62;5.13;4.60;;;27.60;29.00;;;;;;2225940;62;20377;-65
2022/07/25 03:00:20;0.00;0.00;0.62;0.00;0.00;0.62;5.90;4.20;;;27.60;29.00;;;;;;2225864;62;20424;-65
2022/07/25 03:03:05;0.00;0.00;0.62;0.00;0.00;0.62;4.43;4.03;;;27.60;28.90;;;;;;2222215;62;20406;-65
2022/07/25 03:05:50;0.00;0.00;0.62;0.00;0.00;0.62;5.83;4.53;;;27.60;28.90;;;;;;2221919;62;20392;-65
2022/07/25 03:08:35;0.00;0.00;0.62;0.00;0.00;0.62;4.47;4.07;;;27.60;28.90;;;;;;2222577;62;20703;-65
2022/07/25 03:11:19;0.00;0.00;0.62;0.00;0.00;0.62;4.30;3.90;;;27.70;28.90;;;;;;2223829;62;20390;-65
2022/07/25 03:14:06;0.00;0.00;0.62;0.00;0.00;0.62;4.93;4.43;;;27.60;28.80;;;;;;2225934;62;20365;-65
2022/07/25 03:16:52;0.00;0.00;0.62;0.00;0.00;0.62;4.00;3.60;;;27.70;28.80;;;;;;2226355;62;20370;-65
2022/07/25 03:19:37;0.00;0.00;0.62;0.00;0.00;0.62;3.83;3.53;;;27.70;28.70;;;;;;2225936;62;20763;-65
2022/07/25 03:22:23;0.00;0.00;0.62;0.00;0.00;0.62;4.67;4.20;;;27.60;29.20;;;;;;2222382;62;20823;-65
2022/07/25 03:25:08;0.00;0.00;0.62;0.00;0.00;0.62;4.47;4.07;;;27.70;28.70;;;;;;2222068;62;20359;-65
2022/07/25 03:27:53;0.00;0.00;0.62;0.00;0.00;0.62;5.83;4.77;;;27.60;28.60;;;;;;2221949;62;20763;-65
2022/07/25 03:30:38;0.00;0.00;0.62;0.00;0.00;0.62;6.60;3.87;;;27.60;28.60;;;;;;2224446;62;20470;-65
2022/07/25 03:33:24;0.00;0.00;0.62;0.00;0.00;0.62;6.40;3.77;;;27.60;28.60;;;;;;2221857;62;20394;-65
2022/07/25 03:36:10;0.00;0.00;0.62;0.00;0.00;0.62;4.83;4.00;;;27.60;28.50;;;;;;2222039;62;20639;-65
2022/07/25 03:38:56;0.00;0.00;0.62;0.00;0.00;0.62;5.40;4.90;;;27.60;28.50;;;;;;2222280;62;20375;-65
2022/07/25 03:41:41;0.00;0.00;0.62;0.00;0.00;0.62;4.53;3.90;;;27.60;28.50;;;;;;2224507;62;20438;-65
2022/07/25 03:44:25;0.00;0.00;0.62;0.00;0.00;0.62;5.57;4.37;;;27.60;28.50;;;;;;2226005;62;20458;-65
2022/07/25 03:47:10;0.00;0.00;0.62;0.00;0.00;0.62;8.60;4.50;;;27.60;28.50;;;;;;2225990;62;20361;-65
2022/07/25 03:49:56;0.00;0.00;0.62;0.00;0.00;0.62;4.23;3.83;;;27.60;28.50;;;;;;2225604;62;20370;-65
2022/07/25 03:52:41;0.00;0.00;0.62;0.00;0.00;0.62;4.40;4.00;;;27.50;28.40;;;;;;2571065;46;20385;-65
2022/07/25 03:55:27;0.00;0.00;0.62;0.00;0.00;0.62;4.70;4.30;;;27.60;28.40;;;;;;2225800;62;20512;-65
2022/07/25 03:58:12;0.00;0.00;0.62;0.00;0.00;0.62;5.93;4.60;;;27.60;28.50;;;;;;2225895;62;20411;-65
2022/07/25 04:00:57;0.00;0.00;0.62;0.00;0.00;0.62;4.80;4.40;;;27.60;28.40;;;;;;2225946;62;20409;-65
2022/07/25 04:03:41;0.00;0.00;0.62;0.00;0.00;0.62;5.80;4.27;;;27.50;28.30;;;;;;2225702;62;20366;-65
2022/07/25 04:06:28;0.00;0.00;0.62;0.00;0.00;0.62;5.17;3.60;;;27.60;28.30;;;;;;2225681;62;20476;-65
2022/07/25 04:09:14;0.00;0.00;0.62;0.00;0.00;0.62;4.63;4.17;;;27.50;28.20;;;;;;2225954;62;20365;-65
2022/07/25 04:11:59;0.00;0.00;0.62;0.00;0.00;0.62;4.40;3.70;;;27.60;28.30;;;;;;2222005;62;20838;-65
2022/07/25 04:14:44;0.00;0.00;0.62;0.00;0.00;0.62;4.90;4.40;;;27.50;28.70;;;;;;2221918;62;20435;-65
2022/07/25 04:17:29;0.00;0.00;0.62;0.00;0.00;0.62;6.13;4.00;;;27.60;28.30;;;;;;2221806;62;20739;-65
2022/07/25 04:20:14;0.00;0.00;0.62;0.00;0.00;0.62;5.50;4.10;;;27.60;28.20;;;;;;2221872;62;20363;-65
2022/07/25 04:23:00;0.00;0.00;0.62;0.00;0.00;0.62;4.93;4.17;;;27.60;28.20;;;;;;2226125;62;20394;-65
2022/07/25 04:25:45;0.00;0.00;0.62;0.00;0.00;0.62;5.13;3.53;;;27.60;28.20;;;;;;2225626;62;20732;-65
2022/07/25 04:28:31;0.00;0.00;0.62;0.00;0.00;0.62;4.13;3.73;;;27.60;28.20;;;;;;2225722;62;20438;-65
2022/07/25 04:31:16;0.00;0.00;0.62;0.00;0.00;0.62;4.20;3.73;;;27.60;28.20;;;;;;2225850;62;20403;-65
2022/07/25 04:34:01;0.00;0.00;0.62;0.00;0.00;0.62;5.20;4.70;;;27.60;28.20;;;;;;2225408;62;20435;-65
2022/07/25 04:36:45;0.00;0.00;0.62;0.00;0.00;0.62;4.97;4.00;;;27.60;28.20;;;;;;2226352;62;20374;-65
2022/07/25 04:39:31;0.00;0.00;0.62;0.00;0.00;0.62;4.30;3.90;;;27.70;28.20;;;;;;2227902;62;20407;-65
2022/07/25 04:42:16;0.00;0.00;0.62;0.00;0.00;0.62;4.00;3.60;;;27.70;28.20;;;;;;2225470;62;20406;-65
2022/07/25 04:45:01;0.00;0.00;0.62;0.00;0.00;0.62;5.00;3.83;;;27.70;28.20;;;;;;2226123;62;20374;-65
2022/07/25 04:47:49;0.00;0.00;0.62;0.00;0.00;0.62;4.20;3.80;;;27.70;28.10;;;;;;2225665;62;20408;-65
2022/07/25 04:50:34;0.00;0.00;0.62;0.00;0.00;0.62;5.73;4.30;;;27.70;28.20;;;;;;2225495;62;20588;-65
2022/07/25 04:53:18;0.00;0.00;0.62;0.00;0.00;0.62;6.03;4.33;;;27.70;28.10;;;;;;2226153;62;20439;-65
2022/07/25 04:56:05;0.00;0.00;0.62;0.00;0.00;0.62;4.90;4.40;;;27.80;28.10;;;;;;2225250;62;20386;-65
2022/07/25 04:58:50;0.00;0.00;0.62;0.00;0.00;0.62;4.07;3.67;;;27.80;28.10;;;;;;2226188;62;20370;-64
2022/07/25 05:01:35;0.00;0.00;0.62;0.00;0.00;0.62;4.57;4.03;;;27.80;28.60;;;;;;2225615;62;20439;-64
2022/07/25 05:04:19;0.00;0.00;0.62;0.00;0.00;0.62;6.47;3.80;;;27.80;28.00;;;;;;2225541;62;20390;-64
2022/07/25 05:07:04;0.00;0.00;0.62;0.00;0.00;0.62;4.63;4.23;;;27.90;28.10;;;;;;2226138;62;20627;-64
2022/07/25 05:09:49;0.00;0.00;0.62;0.00;0.00;0.62;5.13;4.27;;;27.90;28.10;;;;;;2225425;62;20582;-64
2022/07/25 05:12:35;0.00;0.00;0.62;0.00;0.00;0.62;4.20;3.67;;;28.00;28.10;;;;;;2453871;54;20425;-65
2022/07/25 05:15:21;0.00;0.00;0.62;0.00;0.00;0.62;7.70;4.13;;;28.00;28.00;;;;;;2226084;62;20394;-64
2022/07/25 05:18:05;0.00;0.00;0.62;0.00;0.00;0.62;4.60;4.03;;;28.00;28.00;;;;;;2226398;62;20370;-64
2022/07/25 05:20:50;0.00;0.00;0.62;0.00;0.00;0.62;4.60;4.20;;;28.00;27.90;;;;;;2226584;62;20442;-65
2022/07/25 05:23:34;0.00;0.00;0.62;0.00;0.00;0.62;4.57;4.17;;;28.10;27.90;;;;;;2226316;62;20437;-65
2022/07/25 05:26:19;0.00;0.00;0.62;0.00;0.00;0.62;4.73;3.90;;;28.10;27.90;;;;;;2226279;62;20427;-64
2022/07/25 05:29:05;0.00;0.00;0.62;0.00;0.00;0.62;6.70;4.17;;;28.10;27.90;;;;;;2226796;62;20438;-64
2022/07/25 05:31:50;0.00;0.00;0.62;0.00;0.00;0.62;4.50;4.10;;;28.10;27.90;;;;;;2225819;62;20688;-64
2022/07/25 05:34:37;0.00;0.00;0.62;0.00;0.00;0.62;4.80;3.40;;;28.10;27.90;;;;;;2226324;62;20617;-65
2022/07/25 05:37:22;0.00;0.00;0.62;0.00;0.00;0.62;4.67;4.03;;;28.20;28.00;;;;;;2226726;62;20362;-64
2022/07/25 05:40:08;0.00;0.00;0.62;0.00;0.00;0.62;4.67;4.27;;;28.20;27.90;;;;;;2225945;62;20706;-64
2022/07/25 05:42:52;0.00;0.00;0.62;0.00;0.00;0.62;5.07;4.57;;;28.20;27.90;;;;;;2226718;62;20390;-64
2022/07/25 05:45:38;0.00;0.00;0.62;0.00;0.00;0.62;6.00;4.67;;;28.30;27.90;;;;;;2226297;62;20378;-64
2022/07/25 05:48:23;0.00;0.00;0.62;0.00;0.00;0.62;4.47;4.07;;;28.30;27.90;;;;;;2225885;62;20370;-65
2022/07/25 05:51:08;0.00;0.00;0.62;0.00;0.00;0.62;4.97;4.47;;;28.30;27.90;;;;;;2225905;62;20387;-65
2022/07/25 05:53:53;0.00;0.00;0.62;0.00;0.00;0.62;4.80;4.40;;;28.30;27.90;;;;;;2224390;62;20363;-66
2022/07/25 05:56:38;0.00;0.00;0.62;0.00;0.00;0.62;4.27;3.87;;;28.30;27.80;;;;;;2222253;62;20394;-65
2022/07/25 05:59:23;0.00;0.00;0.62;0.00;0.00;0.62;4.93;4.50;;;28.40;27.90;;;;;;2222546;62;20379;-66
2022/07/25 06:02:09;0.00;0.00;0.62;0.00;0.00;0.62;4.73;4.30;;;28.40;28.00;;;;;;2225534;62;20405;-66
2022/07/25 06:04:54;0.00;0.00;0.62;0.00;0.00;0.62;4.67;4.27;;;28.40;27.90;;;;;;2226178;62;20623;-74
2022/07/25 06:07:40;0.00;0.00;0.62;0.00;0.00;0.62;5.03;4.50;;;28.40;27.90;;;;;;2226343;62;20374;-70
2022/07/25 06:10:24;0.00;0.00;0.62;0.00;0.00;0.62;6.33;4.40;;;28.40;28.00;;;;;;2225184;62;20428;-70
2022/07/25 06:13:09;0.00;0.00;0.62;0.00;0.00;0.62;7.17;4.57;;;28.40;28.10;;;;;;2222174;62;20382;-68
2022/07/25 06:15:54;0.00;0.00;0.62;0.00;0.00;0.62;6.63;4.27;;;28.40;28.00;;;;;;2222085;62;20390;-66
2022/07/25 06:18:40;0.00;0.00;0.62;0.00;0.00;0.62;7.63;4.80;;;28.40;28.00;;;;;;2222115;62;20460;-67
2022/07/25 06:21:24;0.00;0.00;0.62;0.00;0.00;0.62;7.03;4.73;;;28.50;28.00;;;;;;2224656;62;20378;-69
2022/07/25 06:24:09;0.00;0.00;0.62;0.00;0.00;0.62;5.37;4.60;;;28.50;28.00;;;;;;2225980;62;20738;-69
2022/07/25 06:26:54;0.00;0.00;0.62;0.00;0.00;0.62;4.80;4.40;;;28.50;28.00;;;;;;2226128;62;20362;-68
2022/07/25 06:29:38;0.00;0.00;0.62;0.00;0.00;0.62;7.00;5.30;;;28.50;28.10;;;;;;2226178;62;20378;-68
2022/07/25 06:32:23;0.00;0.00;0.62;0.00;0.00;0.62;4.93;4.50;;;28.50;28.10;;;;;;2225292;62;20432;-69
2022/07/25 06:35:09;0.00;0.00;0.62;0.00;0.00;0.62;7.80;4.27;;;28.60;28.20;;;;;;2243705;62;20382;-71
2022/07/25 06:37:54;0.00;0.00;0.62;0.00;0.00;0.62;6.60;5.00;;;28.60;28.20;;;;;;2226037;62;20385;-69
2022/07/25 06:40:38;0.00;0.00;0.62;0.00;0.00;0.62;6.13;4.50;;;28.70;28.30;;;;;;2225849;62;20430;-67
2022/07/25 06:43:23;0.00;0.00;0.62;0.00;0.00;0.62;7.23;5.20;;;28.60;28.20;;;;;;2226322;62;20409;-68
2022/07/25 06:46:08;0.00;0.00;0.62;0.00;0.00;0.62;6.07;5.47;;;28.70;28.20;;;;;;2225949;62;20390;-71
2022/07/25 06:48:52;0.00;0.00;0.62;0.00;0.00;0.62;5.93;5.33;;;28.70;28.20;;;;;;2226033;62;20346;-73
2022/07/25 06:51:38;0.00;0.00;0.62;0.00;0.00;0.62;5.73;5.23;;;28.80;28.20;;;;;;2226228;62;20393;-65
2022/07/25 06:54:23;0.00;0.00;0.62;0.00;0.00;0.62;5.13;4.63;;;28.80;28.30;;;;;;2226037;62;20578;-65
2022/07/25 06:57:08;0.00;0.00;0.62;0.00;0.00;0.62;5.37;4.87;;;28.80;28.30;;;;;;2226400;62;20759;-70
2022/07/25 06:59:52;0.00;0.00;0.62;0.00;0.00;0.62;6.20;5.60;;;28.80;28.30;;;;;;2226171;62;20775;-70
2022/07/25 07:02:48;0.00;0.00;0.62;0.00;0.00;0.62;5.47;4.90;;;28.90;28.40;;;;;;2454301;54;20421;-68
2022/07/25 07:05:36;0.00;0.00;0.62;0.00;0.00;0.62;6.87;5.30;;;28.90;28.40;;;;;;2226565;62;20358;-71
2022/07/25 07:08:22;0.00;0.00;0.62;0.00;0.00;0.62;6.77;6.07;;;28.90;28.30;;;;;;2225767;62;20389;-68
2022/07/25 07:11:07;0.00;0.00;0.62;0.00;0.00;0.62;10.00;6.10;;;29.00;28.90;;;;;;2225819;62;20382;-70
2022/07/25 07:13:52;0.00;0.00;0.62;0.00;0.00;0.62;6.20;5.30;;;29.00;28.30;;;;;;2226394;62;20410;-70
2022/07/25 07:16:37;0.00;0.00;0.62;0.00;0.00;0.62;7.00;6.30;;;29.00;28.40;;;;;;2225892;62;20476;-74
2022/07/25 07:19:21;0.00;0.00;0.62;0.00;0.00;0.62;10.70;6.47;;;29.10;28.40;;;;;;2226377;62;20374;-70
2022/07/25 07:22:06;0.00;0.00;0.62;0.00;0.00;0.62;6.53;5.93;;;29.10;28.40;;;;;;2228085;62;20406;-67
2022/07/25 07:24:52;0.00;0.00;0.62;0.00;0.00;0.62;6.07;5.50;;;29.10;28.50;;;;;;2225958;62;20726;-69
2022/07/25 07:27:37;0.00;0.00;0.62;0.00;0.00;0.62;6.67;6.07;;;29.20;28.50;;;;;;2226321;62;20370;-67
2022/07/25 07:30:22;0.00;0.00;0.62;0.00;0.00;0.62;5.83;5.33;;;29.20;28.50;;;;;;2225662;62;20401;-68
2022/07/25 07:33:07;0.00;0.00;0.62;0.00;0.00;0.62;6.00;5.50;;;29.20;28.50;;;;;;2225977;62;20418;-68
2022/07/25 07:35:54;0.00;0.00;0.62;0.00;0.00;0.62;7.27;6.67;;;29.30;28.50;;;;;;2226342;62;20443;-71
2022/07/25 07:38:40;0.00;0.00;0.62;0.00;0.00;0.62;6.10;5.60;;;29.30;28.50;;;;;;2225592;62;20370;-68
2022/07/25 07:41:26;0.00;0.00;0.62;0.00;0.00;0.62;6.93;5.67;;;29.40;28.50;;;;;;2226096;62;20362;-67
2022/07/25 07:44:11;0.00;0.00;0.62;0.00;0.00;0.62;7.10;6.50;;;29.40;28.50;;;;;;2225993;62;20378;-69
2022/07/25 07:47:00;0.00;0.00;0.62;0.00;0.00;0.62;7.10;6.40;;;29.40;28.50;;;;;;2225762;62;20410;-67
2022/07/25 07:49:45;0.00;0.00;0.62;0.00;0.00;0.62;7.20;6.60;;;29.50;28.50;;;;;;2224425;62;20423;-68
2022/07/25 07:52:30;0.00;0.00;0.62;0.00;0.00;0.62;6.80;6.20;;;29.50;28.50;;;;;;2233596;62;20846;-67
2022/07/25 07:58:20;0.00;0.00;0.62;0.00;0.00;0.62;7.30;6.60;;;29.60;28.60;;;;;;2222136;62;20801;-67
2022/07/25 08:01:06;0.00;0.00;0.62;0.00;0.00;0.62;7.17;6.57;;;29.60;28.60;;;;;;2222696;62;20374;-67
2022/07/25 08:03:51;0.00;0.00;0.62;0.00;0.00;0.62;7.43;6.33;;;29.70;28.70;;;;;;2225917;62;20371;-68
2022/07/25 08:06:36;0.00;0.00;0.62;0.00;0.00;0.62;6.63;6.03;;;29.70;28.60;;;;;;2225872;62;20427;-66
2022/07/25 08:09:24;0.00;0.00;0.62;0.00;0.00;0.62;8.10;6.20;;;29.80;28.60;;;;;;2225651;62;20373;-70
2022/07/25 08:12:09;0.00;0.00;0.62;0.00;0.00;0.62;10.70;6.97;;;29.80;28.60;;;;;;2224877;62;20442;-67
2022/07/25 08:14:55;0.00;0.00;0.62;0.00;0.00;0.62;7.50;6.80;;;29.80;28.50;;;;;;2225796;62;20489;-69
2022/07/25 08:17:40;0.00;0.00;0.62;0.00;0.00;0.62;6.90;6.20;;;29.90;28.50;;;;;;2225804;62;20411;-67
2022/07/25 08:20:25;0.00;0.00;0.62;0.00;0.00;0.62;7.90;7.20;;;29.90;28.30;;;;;;2225144;62;20403;-72
2022/07/25 08:23:12;0.00;0.00;0.62;0.00;0.00;0.62;7.70;6.87;;;30.00;28.30;;;;;;2221965;62;20424;-70
2022/07/25 08:25:58;0.00;0.00;0.62;0.00;0.00;0.62;8.40;7.00;;;30.00;28.30;;;;;;2222068;62;20363;-73
2022/07/25 08:28:43;0.00;0.00;0.62;0.00;0.00;0.62;6.23;5.63;;;30.00;28.30;;;;;;2223981;62;20411;-67
2022/07/25 08:31:32;0.00;0.00;0.62;0.00;0.00;0.62;7.60;7.00;;;30.00;28.20;;;;;;2221413;62;20375;-69
2022/07/25 08:34:18;0.00;0.00;0.62;0.00;0.00;0.62;7.40;6.80;;;30.10;28.20;;;;;;2222113;62;20739;-69
2022/07/25 08:37:04;0.00;0.00;0.62;0.00;0.00;0.62;7.60;6.80;;;30.10;28.20;;;;;;2221626;62;20367;-69
2022/07/25 08:39:50;0.00;0.00;0.62;0.00;0.00;0.62;7.80;7.10;;;30.20;28.30;;;;;;2221759;62;20399;-67
2022/07/25 08:42:35;0.00;0.00;0.62;0.00;0.00;0.62;7.87;7.17;;;30.20;28.20;;;;;;2258221;59;20444;-68
2022/07/25 08:45:21;0.00;0.00;0.62;0.00;0.00;0.62;10.50;7.20;;;30.30;28.00;;;;;;2221912;62;20447;-68
2022/07/25 08:48:08;0.00;0.00;0.62;0.00;0.00;0.62;7.90;7.20;;;30.30;27.90;;;;;;2222035;62;20421;-68
2022/07/25 08:50:56;0.00;0.00;0.62;0.00;0.00;0.62;7.93;7.23;;;30.30;27.80;;;;;;2221583;62;20497;-69
2022/07/25 08:53:41;0.00;0.00;0.62;0.00;0.00;0.62;8.63;7.93;;;30.40;27.80;;;;;;2222170;62;20402;-68
2022/07/25 08:56:25;0.00;0.00;0.62;0.00;0.00;0.62;8.60;7.80;;;30.40;27.80;;;;;;2222596;62;20717;-67
2022/07/25 08:59:10;0.00;0.00;0.62;0.00;0.00;0.62;8.27;7.57;;;30.50;27.80;;;;;;2222317;62;20439;-65
2022/07/25 09:01:56;0.00;0.00;0.62;0.00;0.00;0.62;8.00;7.30;;;30.50;27.80;;;;;;2224444;62;20508;-65
2022/07/25 09:04:42;0.00;0.00;0.62;0.00;0.00;0.62;8.30;7.60;;;30.50;27.90;;;;;;2226535;62;20370;-65
2022/07/25 09:07:33;0.00;0.00;0.62;0.00;0.00;0.62;7.57;6.97;;;30.60;27.80;;;;;;2226390;62;20450;-65
2022/07/25 09:10:22;0.00;0.00;0.62;0.00;0.00;0.62;7.23;6.57;;;30.60;27.80;;;;;;2225827;62;20366;-65
2022/07/25 09:13:13;0.00;0.00;0.62;0.00;0.00;0.62;8.13;7.37;;;30.60;27.60;;;;;;2606258;46;20712;-65
2022/07/25 09:15:59;0.00;0.00;0.62;0.00;0.00;0.62;8.40;7.60;;;30.70;27.70;;;;;;2218280;62;20413;-65
2022/07/25 09:18:44;0.00;0.00;0.62;0.00;0.00;0.62;7.70;7.00;;;30.70;27.70;;;;;;2218846;62;20525;-65
2022/07/25 09:21:30;0.00;0.00;0.62;0.00;0.00;0.62;8.97;8.20;;;30.70;27.60;;;;;;2220508;62;20406;-65
2022/07/25 09:24:17;0.00;0.00;0.62;0.00;0.00;0.62;7.77;7.07;;;30.80;27.60;;;;;;2222178;62;20466;-65
2022/07/25 09:27:09;0.00;0.00;0.62;0.00;0.00;0.62;8.03;7.27;;;30.80;27.50;;;;;;2222478;62;20457;-65
2022/07/25 09:29:53;0.00;0.00;0.62;0.00;0.00;0.62;9.20;8.50;;;30.80;27.50;;;;;;2222224;62;20400;-65
2022/07/25 09:32:38;0.00;0.00;0.62;0.00;0.00;0.62;7.83;7.13;;;30.90;27.50;;;;;;2253815;59;20439;-65
2022/07/25 09:35:29;0.00;0.00;0.62;0.00;0.00;0.62;8.40;7.60;;;30.90;27.40;;;;;;2226124;62;20385;-65
2022/07/25 09:38:17;0.00;0.00;0.62;0.00;0.00;0.62;8.20;6.67;;;30.90;27.30;;;;;;2225948;62;20370;-65
2022/07/25 09:41:03;0.00;0.00;0.62;0.00;0.00;0.62;8.47;7.67;;;31.00;27.40;;;;;;2224509;62;20380;-65
2022/07/25 09:43:47;0.00;0.00;0.62;0.00;0.00;0.62;8.30;7.50;;;31.00;27.30;;;;;;2222149;62;20387;-65
2022/07/25 09:46:32;0.00;0.00;0.62;0.00;0.00;0.62;7.77;6.97;;;31.00;27.30;;;;;;2222211;62;20591;-65
2022/07/25 09:49:18;0.00;0.00;0.62;0.00;0.00;0.62;8.13;7.33;;;31.10;27.30;;;;;;2222468;62;20391;-65
2022/07/25 09:52:03;0.00;0.00;0.62;0.00;0.00;0.62;7.70;7.10;;;31.10;27.40;;;;;;2462146;54;20504;-65
2022/07/25 09:54:49;0.00;0.00;0.62;0.00;0.00;0.62;7.13;6.53;;;31.10;27.40;;;;;;2222449;62;20712;-65
2022/07/25 09:57:34;0.00;0.00;0.62;0.00;0.00;0.62;8.33;7.60;;;31.20;27.40;;;;;;2222152;62;20374;-65
2022/07/25 10:00:22;0.00;0.00;0.62;0.00;0.00;0.62;7.10;6.57;;;31.20;27.30;;;;;;2221866;62;20456;-65
2022/07/25 10:03:19;0.00;0.00;0.62;0.00;0.00;0.62;8.43;7.57;;;31.20;27.20;;;;;;2236295;59;20403;-65
2022/07/25 10:06:19;0.00;0.00;0.62;0.00;0.00;0.62;7.87;7.17;;;31.20;27.20;;;;;;2222211;62;20362;-65
2022/07/25 10:09:10;0.00;0.00;0.62;0.00;0.00;0.62;7.40;6.80;;;31.30;27.30;;;;;;2221988;62;20384;-65
2022/07/25 10:12:08;0.00;0.00;0.62;0.00;0.00;0.62;7.60;6.90;;;31.30;27.20;;;;;;2221917;62;20444;-65
2022/07/25 10:15:07;0.00;0.00;0.62;0.00;0.00;0.62;7.33;6.73;;;31.40;27.30;;;;;;2221906;62;20728;-65
2022/07/25 10:18:03;0.00;0.00;0.62;0.00;0.00;0.62;8.77;7.20;;;31.40;27.30;;;;;;2222332;62;20370;-65
2022/07/25 10:20:50;0.00;0.00;0.62;0.00;0.00;0.62;7.53;6.83;;;31.50;27.20;;;;;;2222586;62;20412;-65
2022/07/25 10:23:34;0.00;0.00;0.62;0.00;0.00;0.62;7.70;7.03;;;31.50;27.00;;;;;;2225816;62;20414;-65
2022/07/25 10:26:19;0.00;0.00;0.62;0.00;0.00;0.62;7.80;7.10;;;31.50;26.90;;;;;;2226301;62;20626;-65
2022/07/25 10:29:09;0.00;0.00;0.62;0.00;0.00;0.62;7.60;7.00;;;31.50;26.90;;;;;;2226023;62;20397;-65
2022/07/25 10:32:05;0.00;0.00;0.62;0.00;0.00;0.62;7.70;7.10;;;31.60;26.80;;;;;;2228186;62;20517;-65
2022/07/25 10:34:53;0.00;0.00;0.62;0.00;0.00;0.62;7.70;7.00;;;31.60;26.80;;;;;;2226007;62;20366;-65
2022/07/25 10:37:38;0.00;0.00;0.62;0.00;0.00;0.62;7.40;6.73;;;31.70;26.80;;;;;;2225880;62;20792;-65
2022/07/25 10:40:31;0.00;0.00;0.62;0.00;0.00;0.62;7.10;6.50;;;31.70;26.90;;;;;;2225334;62;20497;-65
2022/07/25 10:43:19;0.00;0.00;0.62;0.00;0.00;0.62;7.90;7.20;;;31.70;27.00;;;;;;2218284;62;20395;-65
2022/07/25 10:46:12;0.00;0.00;0.62;0.00;0.00;0.62;7.77;7.00;;;31.80;27.10;;;;;;2217634;62;20372;-65
2022/07/25 10:49:00;0.00;0.00;0.62;0.00;0.00;0.62;8.33;7.63;;;31.80;27.00;;;;;;2218235;62;20740;-65
2022/07/25 10:51:55;0.00;0.00;0.62;0.00;0.00;0.62;8.80;7.83;;;31.80;26.90;;;;;;2221044;62;20767;-65
2022/07/25 10:54:40;0.00;0.00;0.62;0.00;0.00;0.62;7.27;6.57;;;31.90;26.80;;;;;;2222337;62;20516;-65
2022/07/25 10:57:26;0.00;0.00;0.62;0.00;0.00;0.62;8.33;7.63;;;31.90;26.80;;;;;;2222080;62;20370;-65